sensor_id;sensor_type;location;lat;lon;timestamp;temperature;humidity
7654;DHT22;3869;48.406;10.774;2023-07-13T00:00:05;18.80;99.90
7654;DHT22;3869;48.406;10.774;2023-07-13T00:02:36;18.70;99.90
7654;DHT22;3869;48.406;10.774;2023-07-13T00:05:04;18.80;99.90
7654;DHT22;3869;48.406;10.774;2023-07-13T00:07:33;18.80;99.90
7654;DHT22;3869;48.406;10.774;2023-07-13T00:10:03;18.80;99.90
7654;DHT22;3869;48.406;10.774;2023-07-13T00:12:34;18.80;99.90
7654;DHT22;3869;48.406;10.774;2023-07-13T00:15:05;18.80;99.90
7654;DHT22;3869;48.406;10.774;2023-07-13T00:17:33;18.80;99.90
7654;DHT22;3869;48.406;10.774;2023-07-13T00:20:01;18.80;99.90
7654;DHT22;3869;48.406;10.774;2023-07-13T00:22:30;18.80;99.90
7654;DHT22;3869;48.406;10.774;2023-07-13T00:24:58;18.80;99.90
7654;DHT22;3869;48.406;10.774;2023-07-13T00:27:28;18.80;99.90
7654;DHT22;3869;48.406;10.774;2023-07-13T00:29:58;18.90;99.90
7654;DHT22;3869;48.406;10.774;2023-07-13T00:32:27;18.90;99.90
7654;DHT22;3869;48.406;10.774;2023-07-13T00:34:56;18.90;99.90
7654;DHT22;3869;48.406;10.774;2023-07-13T00:37:25;19.00;99.90
7654;DHT22;3869;48.406;10.774;2023-07-13T00:39:52;18.90;99.90
7654;DHT22;3869;48.406;10.774;2023-07-13T00:42:21;18.90;99.90
7654;DHT22;3869;48.406;10.774;2023-07-13T00:45:04;19.00;99.90
7654;DHT22;3869;48.406;10.774;2023-07-13T00:47:32;18.90;99.90
7654;DHT22;3869;48.406;10.774;2023-07-13T00:50:00;18.90;99.90
7654;DHT22;3869;48.406;10.774;2023-07-13T00:52:28;18.90;99.90
7654;DHT22;3869;48.406;10.774;2023-07-13T00:54:57;18.90;99.90
7654;DHT22;3869;48.406;10.774;2023-07-13T00:57:26;18.90;99.90
7654;DHT22;3869;48.406;10.774;2023-07-13T00:59:57;18.90;99.90
7654;DHT22;3869;48.406;10.774;2023-07-13T01:02:28;19.00;99.90
7654;DHT22;3869;48.406;10.774;2023-07-13T01:04:57;19.00;99.90
7654;DHT22;3869;48.406;10.774;2023-07-13T01:07:25;19.00;99.90
7654;DHT22;3869;48.406;10.774;2023-07-13T01:09:53;19.00;99.90
7654;DHT22;3869;48.406;10.774;2023-07-13T01:12:21;19.00;99.90
7654;DHT22;3869;48.406;10.774;2023-07-13T01:14:57;19.00;99.90
7654;DHT22;3869;48.406;10.774;2023-07-13T01:17:28;19.00;99.90
7654;DHT22;3869;48.406;10.774;2023-07-13T01:19:57;19.00;99.90
7654;DHT22;3869;48.406;10.774;2023-07-13T01:22:26;19.00;99.90
7654;DHT22;3869;48.406;10.774;2023-07-13T01:24:54;19.00;99.90
7654;DHT22;3869;48.406;10.774;2023-07-13T01:27:25;19.00;99.90
7654;DHT22;3869;48.406;10.774;2023-07-13T01:29:54;19.00;99.90
7654;DHT22;3869;48.406;10.774;2023-07-13T01:32:30;19.00;99.90
7654;DHT22;3869;48.406;10.774;2023-07-13T01:34:59;19.00;99.90
7654;DHT22;3869;48.406;10.774;2023-07-13T01:37:29;19.00;99.90
7654;DHT22;3869;48.406;10.774;2023-07-13T01:39:59;19.00;99.90
7654;DHT22;3869;48.406;10.774;2023-07-13T01:42:28;19.00;99.90
7654;DHT22;3869;48.406;10.774;2023-07-13T01:44:56;18.90;99.90
7654;DHT22;3869;48.406;10.774;2023-07-13T01:47:24;18.90;99.90
7654;DHT22;3869;48.406;10.774;2023-07-13T01:49:54;18.90;99.90
7654;DHT22;3869;48.406;10.774;2023-07-13T01:52:22;18.90;99.90
7654;DHT22;3869;48.406;10.774;2023-07-13T01:54:52;18.90;99.90
7654;DHT22;3869;48.406;10.774;2023-07-13T01:57:20;18.90;99.90
7654;DHT22;3869;48.406;10.774;2023-07-13T01:59:48;18.90;99.90
7654;DHT22;3869;48.406;10.774;2023-07-13T02:02:16;19.00;99.90
7654;DHT22;3869;48.406;10.774;2023-07-13T02:04:44;19.00;99.90
7654;DHT22;3869;48.406;10.774;2023-07-13T02:07:13;19.00;99.90
7654;DHT22;3869;48.406;10.774;2023-07-13T02:09:41;18.90;99.90
7654;DHT22;3869;48.406;10.774;2023-07-13T02:12:11;19.00;99.90
7654;DHT22;3869;48.406;10.774;2023-07-13T02:14:39;19.00;99.90
7654;DHT22;3869;48.406;10.774;2023-07-13T02:17:07;19.00;99.90
7654;DHT22;3869;48.406;10.774;2023-07-13T02:19:35;18.90;99.90
7654;DHT22;3869;48.406;10.774;2023-07-13T02:22:03;19.00;99.90
7654;DHT22;3869;48.406;10.774;2023-07-13T02:24:31;18.90;99.90
7654;DHT22;3869;48.406;10.774;2023-07-13T02:26:59;18.90;99.90
7654;DHT22;3869;48.406;10.774;2023-07-13T02:29:29;18.90;99.90
7654;DHT22;3869;48.406;10.774;2023-07-13T02:31:57;18.90;99.90
7654;DHT22;3869;48.406;10.774;2023-07-13T02:34:25;18.80;99.90
7654;DHT22;3869;48.406;10.774;2023-07-13T02:36:53;18.80;99.90
7654;DHT22;3869;48.406;10.774;2023-07-13T02:39:21;18.80;99.90
7654;DHT22;3869;48.406;10.774;2023-07-13T02:41:49;18.80;99.90
7654;DHT22;3869;48.406;10.774;2023-07-13T02:44:17;18.80;99.90
7654;DHT22;3869;48.406;10.774;2023-07-13T02:46:46;18.80;99.90
7654;DHT22;3869;48.406;10.774;2023-07-13T02:49:14;18.80;99.90
7654;DHT22;3869;48.406;10.774;2023-07-13T02:51:42;18.80;99.90
7654;DHT22;3869;48.406;10.774;2023-07-13T02:54:10;18.80;99.90
7654;DHT22;3869;48.406;10.774;2023-07-13T02:56:40;18.70;99.90
7654;DHT22;3869;48.406;10.774;2023-07-13T02:59:10;18.80;99.90
7654;DHT22;3869;48.406;10.774;2023-07-13T03:01:39;18.80;99.90
7654;DHT22;3869;48.406;10.774;2023-07-13T03:04:08;18.80;99.90
7654;DHT22;3869;48.406;10.774;2023-07-13T03:06:37;18.80;99.90
7654;DHT22;3869;48.406;10.774;2023-07-13T03:09:05;18.70;99.90
7654;DHT22;3869;48.406;10.774;2023-07-13T03:11:33;18.70;99.90
7654;DHT22;3869;48.406;10.774;2023-07-13T03:14:01;18.70;99.90
7654;DHT22;3869;48.406;10.774;2023-07-13T03:16:29;18.70;99.90
7654;DHT22;3869;48.406;10.774;2023-07-13T03:18:57;18.80;99.90
7654;DHT22;3869;48.406;10.774;2023-07-13T03:21:26;18.70;99.90
7654;DHT22;3869;48.406;10.774;2023-07-13T03:23:54;18.60;99.90
7654;DHT22;3869;48.406;10.774;2023-07-13T03:26:22;18.60;99.90
7654;DHT22;3869;48.406;10.774;2023-07-13T03:28:50;18.60;99.90
7654;DHT22;3869;48.406;10.774;2023-07-13T03:31:21;18.60;99.90
7654;DHT22;3869;48.406;10.774;2023-07-13T03:33:50;18.60;99.90
7654;DHT22;3869;48.406;10.774;2023-07-13T03:36:20;18.50;99.90
7654;DHT22;3869;48.406;10.774;2023-07-13T03:38:52;18.50;99.90
7654;DHT22;3869;48.406;10.774;2023-07-13T03:41:20;18.50;99.90
7654;DHT22;3869;48.406;10.774;2023-07-13T03:43:49;18.50;99.90
7654;DHT22;3869;48.406;10.774;2023-07-13T03:46:17;18.50;99.90
7654;DHT22;3869;48.406;10.774;2023-07-13T03:48:47;18.50;99.90
7654;DHT22;3869;48.406;10.774;2023-07-13T03:51:16;18.60;99.90
7654;DHT22;3869;48.406;10.774;2023-07-13T03:53:46;18.60;99.90
7654;DHT22;3869;48.406;10.774;2023-07-13T03:56:17;18.60;99.90
7654;DHT22;3869;48.406;10.774;2023-07-13T03:58:47;18.50;99.90
7654;DHT22;3869;48.406;10.774;2023-07-13T04:01:17;18.50;99.90
7654;DHT22;3869;48.406;10.774;2023-07-13T04:03:45;18.40;99.90
7654;DHT22;3869;48.406;10.774;2023-07-13T04:06:16;18.30;99.90
7654;DHT22;3869;48.406;10.774;2023-07-13T04:08:49;18.40;99.90
7654;DHT22;3869;48.406;10.774;2023-07-13T04:11:20;18.30;99.90
7654;DHT22;3869;48.406;10.774;2023-07-13T04:13:49;18.40;99.90
7654;DHT22;3869;48.406;10.774;2023-07-13T04:16:18;18.40;99.90
7654;DHT22;3869;48.406;10.774;2023-07-13T04:18:47;18.40;99.90
7654;DHT22;3869;48.406;10.774;2023-07-13T04:21:16;18.40;99.90
7654;DHT22;3869;48.406;10.774;2023-07-13T04:23:44;18.40;99.90
7654;DHT22;3869;48.406;10.774;2023-07-13T04:26:12;18.40;99.90
7654;DHT22;3869;48.406;10.774;2023-07-13T04:28:41;18.30;99.90
7654;DHT22;3869;48.406;10.774;2023-07-13T04:31:10;18.30;99.90
7654;DHT22;3869;48.406;10.774;2023-07-13T04:33:38;18.20;99.90
7654;DHT22;3869;48.406;10.774;2023-07-13T04:36:06;18.30;99.90
7654;DHT22;3869;48.406;10.774;2023-07-13T04:38:37;18.30;99.90
7654;DHT22;3869;48.406;10.774;2023-07-13T04:41:06;18.30;99.90
7654;DHT22;3869;48.406;10.774;2023-07-13T04:43:35;18.30;99.90
7654;DHT22;3869;48.406;10.774;2023-07-13T04:46:05;18.30;99.90
7654;DHT22;3869;48.406;10.774;2023-07-13T04:48:34;18.30;99.90
7654;DHT22;3869;48.406;10.774;2023-07-13T04:51:03;18.20;99.90
7654;DHT22;3869;48.406;10.774;2023-07-13T04:53:31;18.20;99.90
7654;DHT22;3869;48.406;10.774;2023-07-13T04:56:01;18.20;99.90
7654;DHT22;3869;48.406;10.774;2023-07-13T04:58:30;18.20;99.90
7654;DHT22;3869;48.406;10.774;2023-07-13T05:01:00;18.20;99.90
7654;DHT22;3869;48.406;10.774;2023-07-13T05:03:29;18.30;99.90
7654;DHT22;3869;48.406;10.774;2023-07-13T05:05:59;18.30;99.90
7654;DHT22;3869;48.406;10.774;2023-07-13T05:08:27;18.30;99.90
7654;DHT22;3869;48.406;10.774;2023-07-13T05:10:55;18.40;99.90
7654;DHT22;3869;48.406;10.774;2023-07-13T05:13:23;18.40;99.90
7654;DHT22;3869;48.406;10.774;2023-07-13T05:15:57;18.40;99.90
7654;DHT22;3869;48.406;10.774;2023-07-13T05:18:25;18.50;99.90
7654;DHT22;3869;48.406;10.774;2023-07-13T05:21:03;18.50;99.90
7654;DHT22;3869;48.406;10.774;2023-07-13T05:23:32;18.50;99.90
7654;DHT22;3869;48.406;10.774;2023-07-13T05:26:00;18.50;99.90
7654;DHT22;3869;48.406;10.774;2023-07-13T05:28:31;18.50;99.90
7654;DHT22;3869;48.406;10.774;2023-07-13T05:30:59;18.60;99.90
7654;DHT22;3869;48.406;10.774;2023-07-13T05:33:28;18.60;99.90
7654;DHT22;3869;48.406;10.774;2023-07-13T05:35:56;18.70;99.90
7654;DHT22;3869;48.406;10.774;2023-07-13T05:38:25;18.70;99.90
7654;DHT22;3869;48.406;10.774;2023-07-13T05:40:54;18.70;99.90
7654;DHT22;3869;48.406;10.774;2023-07-13T05:43:23;18.70;99.90
7654;DHT22;3869;48.406;10.774;2023-07-13T05:45:53;18.70;99.90
7654;DHT22;3869;48.406;10.774;2023-07-13T05:48:21;18.70;99.90
7654;DHT22;3869;48.406;10.774;2023-07-13T05:50:49;18.60;99.90
7654;DHT22;3869;48.406;10.774;2023-07-13T05:53:18;18.60;99.90
7654;DHT22;3869;48.406;10.774;2023-07-13T05:55:48;18.60;99.90
7654;DHT22;3869;48.406;10.774;2023-07-13T05:58:17;18.50;99.90
7654;DHT22;3869;48.406;10.774;2023-07-13T06:00:46;18.50;99.90
7654;DHT22;3869;48.406;10.774;2023-07-13T06:03:14;18.40;99.90
7654;DHT22;3869;48.406;10.774;2023-07-13T06:05:42;18.40;99.90
7654;DHT22;3869;48.406;10.774;2023-07-13T06:08:10;18.50;99.90
7654;DHT22;3869;48.406;10.774;2023-07-13T06:10:38;18.50;99.90
7654;DHT22;3869;48.406;10.774;2023-07-13T06:13:08;18.60;99.90
7654;DHT22;3869;48.406;10.774;2023-07-13T06:15:36;18.60;99.90
7654;DHT22;3869;48.406;10.774;2023-07-13T06:18:04;18.60;99.90
7654;DHT22;3869;48.406;10.774;2023-07-13T06:20:34;18.60;99.90
7654;DHT22;3869;48.406;10.774;2023-07-13T06:23:02;18.40;99.90
7654;DHT22;3869;48.406;10.774;2023-07-13T06:25:30;18.40;99.90
7654;DHT22;3869;48.406;10.774;2023-07-13T06:27:58;18.40;99.90
7654;DHT22;3869;48.406;10.774;2023-07-13T06:30:27;18.40;99.90
7654;DHT22;3869;48.406;10.774;2023-07-13T06:32:55;18.40;99.90
7654;DHT22;3869;48.406;10.774;2023-07-13T06:35:23;18.40;99.90
7654;DHT22;3869;48.406;10.774;2023-07-13T06:37:52;18.40;99.90
7654;DHT22;3869;48.406;10.774;2023-07-13T06:40:20;18.40;99.90
7654;DHT22;3869;48.406;10.774;2023-07-13T06:42:48;18.40;99.90
7654;DHT22;3869;48.406;10.774;2023-07-13T06:45:16;18.40;99.90
7654;DHT22;3869;48.406;10.774;2023-07-13T06:47:45;18.40;99.90
7654;DHT22;3869;48.406;10.774;2023-07-13T06:50:13;18.30;99.90
7654;DHT22;3869;48.406;10.774;2023-07-13T06:52:41;18.30;99.90
7654;DHT22;3869;48.406;10.774;2023-07-13T06:55:09;18.30;99.90
7654;DHT22;3869;48.406;10.774;2023-07-13T06:57:37;18.40;99.90
7654;DHT22;3869;48.406;10.774;2023-07-13T07:00:06;18.50;99.90
7654;DHT22;3869;48.406;10.774;2023-07-13T07:02:36;18.50;99.90
7654;DHT22;3869;48.406;10.774;2023-07-13T07:05:06;18.50;99.90
7654;DHT22;3869;48.406;10.774;2023-07-13T07:07:34;18.50;99.90
7654;DHT22;3869;48.406;10.774;2023-07-13T07:10:03;18.50;99.90
7654;DHT22;3869;48.406;10.774;2023-07-13T07:12:31;18.60;99.90
7654;DHT22;3869;48.406;10.774;2023-07-13T07:14:59;18.50;99.90
7654;DHT22;3869;48.406;10.774;2023-07-13T07:17:27;18.50;99.90
7654;DHT22;3869;48.406;10.774;2023-07-13T07:19:55;18.60;99.90
7654;DHT22;3869;48.406;10.774;2023-07-13T07:22:25;18.70;99.90
7654;DHT22;3869;48.406;10.774;2023-07-13T07:24:54;18.70;99.90
7654;DHT22;3869;48.406;10.774;2023-07-13T07:27:22;18.90;99.90
7654;DHT22;3869;48.406;10.774;2023-07-13T07:29:53;19.00;99.90
7654;DHT22;3869;48.406;10.774;2023-07-13T07:32:41;19.00;99.90
7654;DHT22;3869;48.406;10.774;2023-07-13T07:35:23;18.90;99.90
7654;DHT22;3869;48.406;10.774;2023-07-13T07:37:52;18.90;99.90
7654;DHT22;3869;48.406;10.774;2023-07-13T07:40:21;18.90;99.90
7654;DHT22;3869;48.406;10.774;2023-07-13T07:42:52;19.00;99.90
7654;DHT22;3869;48.406;10.774;2023-07-13T07:45:21;19.10;99.90
7654;DHT22;3869;48.406;10.774;2023-07-13T07:47:49;19.10;99.90
7654;DHT22;3869;48.406;10.774;2023-07-13T07:50:17;19.20;99.90
7654;DHT22;3869;48.406;10.774;2023-07-13T07:52:46;19.20;99.90
7654;DHT22;3869;48.406;10.774;2023-07-13T07:55:16;19.20;99.90
7654;DHT22;3869;48.406;10.774;2023-07-13T07:57:47;19.10;99.90
7654;DHT22;3869;48.406;10.774;2023-07-13T08:00:18;19.10;99.90
7654;DHT22;3869;48.406;10.774;2023-07-13T08:02:49;19.10;99.90
7654;DHT22;3869;48.406;10.774;2023-07-13T08:05:20;19.10;99.90
7654;DHT22;3869;48.406;10.774;2023-07-13T08:08:08;19.20;99.90
7654;DHT22;3869;48.406;10.774;2023-07-13T08:10:37;19.20;99.90
7654;DHT22;3869;48.406;10.774;2023-07-13T08:13:05;19.20;99.90
7654;DHT22;3869;48.406;10.774;2023-07-13T08:15:37;19.20;99.90
7654;DHT22;3869;48.406;10.774;2023-07-13T08:18:05;19.20;99.90
7654;DHT22;3869;48.406;10.774;2023-07-13T08:20:36;19.20;99.90
7654;DHT22;3869;48.406;10.774;2023-07-13T08:23:05;19.20;99.90
7654;DHT22;3869;48.406;10.774;2023-07-13T08:25:33;19.20;99.90
7654;DHT22;3869;48.406;10.774;2023-07-13T08:28:03;19.20;99.90
7654;DHT22;3869;48.406;10.774;2023-07-13T08:30:31;19.30;99.90
7654;DHT22;3869;48.406;10.774;2023-07-13T08:32:59;19.40;99.90
7654;DHT22;3869;48.406;10.774;2023-07-13T08:35:27;19.50;99.90
7654;DHT22;3869;48.406;10.774;2023-07-13T08:37:56;19.50;99.90
7654;DHT22;3869;48.406;10.774;2023-07-13T08:40:25;19.50;99.90
7654;DHT22;3869;48.406;10.774;2023-07-13T08:42:55;19.50;99.90
7654;DHT22;3869;48.406;10.774;2023-07-13T08:45:30;19.50;99.90
7654;DHT22;3869;48.406;10.774;2023-07-13T08:48:04;19.60;99.90
7654;DHT22;3869;48.406;10.774;2023-07-13T08:50:37;19.60;99.90
7654;DHT22;3869;48.406;10.774;2023-07-13T08:53:30;19.60;99.90
7654;DHT22;3869;48.406;10.774;2023-07-13T08:56:01;19.70;99.90
7654;DHT22;3869;48.406;10.774;2023-07-13T08:58:30;19.70;99.90
7654;DHT22;3869;48.406;10.774;2023-07-13T09:01:05;19.70;99.90
7654;DHT22;3869;48.406;10.774;2023-07-13T09:03:40;19.70;99.90
7654;DHT22;3869;48.406;10.774;2023-07-13T09:06:10;19.80;99.90
7654;DHT22;3869;48.406;10.774;2023-07-13T09:08:47;19.80;99.90
7654;DHT22;3869;48.406;10.774;2023-07-13T09:11:28;19.90;99.90
7654;DHT22;3869;48.406;10.774;2023-07-13T09:14:03;19.90;99.90
7654;DHT22;3869;48.406;10.774;2023-07-13T09:16:34;20.00;99.90
7654;DHT22;3869;48.406;10.774;2023-07-13T09:19:08;20.00;99.90
7654;DHT22;3869;48.406;10.774;2023-07-13T09:21:42;20.00;99.90
7654;DHT22;3869;48.406;10.774;2023-07-13T09:24:29;20.00;99.90
7654;DHT22;3869;48.406;10.774;2023-07-13T09:26:59;20.00;99.90
7654;DHT22;3869;48.406;10.774;2023-07-13T09:29:30;20.10;99.90
7654;DHT22;3869;48.406;10.774;2023-07-13T09:32:06;20.10;99.90
7654;DHT22;3869;48.406;10.774;2023-07-13T09:34:37;20.20;99.90
7654;DHT22;3869;48.406;10.774;2023-07-13T09:37:05;20.20;99.90
7654;DHT22;3869;48.406;10.774;2023-07-13T09:39:35;20.10;99.90
7654;DHT22;3869;48.406;10.774;2023-07-13T09:42:12;20.10;99.90
7654;DHT22;3869;48.406;10.774;2023-07-13T09:44:52;20.00;99.90
7654;DHT22;3869;48.406;10.774;2023-07-13T09:47:24;20.00;99.90
7654;DHT22;3869;48.406;10.774;2023-07-13T09:49:58;20.00;99.90
7654;DHT22;3869;48.406;10.774;2023-07-13T09:52:41;20.10;99.90
7654;DHT22;3869;48.406;10.774;2023-07-13T09:55:25;20.10;99.90
7654;DHT22;3869;48.406;10.774;2023-07-13T09:57:53;20.10;99.90
7654;DHT22;3869;48.406;10.774;2023-07-13T10:00:23;20.10;99.90
7654;DHT22;3869;48.406;10.774;2023-07-13T10:03:04;20.00;99.90
7654;DHT22;3869;48.406;10.774;2023-07-13T10:05:40;20.00;99.90
7654;DHT22;3869;48.406;10.774;2023-07-13T10:08:20;20.10;99.90
7654;DHT22;3869;48.406;10.774;2023-07-13T10:10:53;20.20;99.90
7654;DHT22;3869;48.406;10.774;2023-07-13T10:13:34;20.30;99.90
7654;DHT22;3869;48.406;10.774;2023-07-13T10:16:05;20.40;99.90
7654;DHT22;3869;48.406;10.774;2023-07-13T10:18:39;20.50;99.90
7654;DHT22;3869;48.406;10.774;2023-07-13T10:21:16;20.60;99.90
7654;DHT22;3869;48.406;10.774;2023-07-13T10:23:54;20.70;99.90
7654;DHT22;3869;48.406;10.774;2023-07-13T10:26:26;20.70;99.90
7654;DHT22;3869;48.406;10.774;2023-07-13T10:28:57;20.60;99.90
7654;DHT22;3869;48.406;10.774;2023-07-13T10:31:27;20.60;99.90
7654;DHT22;3869;48.406;10.774;2023-07-13T10:33:56;20.70;99.90
7654;DHT22;3869;48.406;10.774;2023-07-13T10:36:31;20.80;99.90
7654;DHT22;3869;48.406;10.774;2023-07-13T10:39:02;20.70;99.90
7654;DHT22;3869;48.406;10.774;2023-07-13T10:41:35;20.70;99.90
7654;DHT22;3869;48.406;10.774;2023-07-13T10:44:13;20.70;99.90
7654;DHT22;3869;48.406;10.774;2023-07-13T10:46:43;20.60;99.90
7654;DHT22;3869;48.406;10.774;2023-07-13T10:49:13;20.60;99.90
7654;DHT22;3869;48.406;10.774;2023-07-13T10:51:42;20.70;99.90
7654;DHT22;3869;48.406;10.774;2023-07-13T10:54:15;20.90;99.90
7654;DHT22;3869;48.406;10.774;2023-07-13T10:56:48;20.90;99.90
7654;DHT22;3869;48.406;10.774;2023-07-13T10:59:20;21.00;99.90
7654;DHT22;3869;48.406;10.774;2023-07-13T11:01:56;21.00;99.90
7654;DHT22;3869;48.406;10.774;2023-07-13T11:04:29;21.10;99.90
7654;DHT22;3869;48.406;10.774;2023-07-13T11:07:11;21.20;99.90
7654;DHT22;3869;48.406;10.774;2023-07-13T11:09:50;21.40;99.90
7654;DHT22;3869;48.406;10.774;2023-07-13T11:15:28;21.60;99.90
7654;DHT22;3869;48.406;10.774;2023-07-13T11:17:57;21.70;99.90
7654;DHT22;3869;48.406;10.774;2023-07-13T11:20:37;21.90;99.90
7654;DHT22;3869;48.406;10.774;2023-07-13T11:23:30;22.00;99.90
7654;DHT22;3869;48.406;10.774;2023-07-13T11:26:00;22.10;99.90
7654;DHT22;3869;48.406;10.774;2023-07-13T11:28:31;22.30;99.90
7654;DHT22;3869;48.406;10.774;2023-07-13T11:31:13;22.40;99.90
7654;DHT22;3869;48.406;10.774;2023-07-13T11:33:56;22.50;99.90
7654;DHT22;3869;48.406;10.774;2023-07-13T11:36:31;22.40;99.90
7654;DHT22;3869;48.406;10.774;2023-07-13T11:39:04;22.50;99.90
7654;DHT22;3869;48.406;10.774;2023-07-13T11:41:35;22.60;99.90
7654;DHT22;3869;48.406;10.774;2023-07-13T11:44:13;22.80;99.90
7654;DHT22;3869;48.406;10.774;2023-07-13T11:46:46;22.90;99.90
7654;DHT22;3869;48.406;10.774;2023-07-13T11:49:19;22.90;99.90
7654;DHT22;3869;48.406;10.774;2023-07-13T11:51:52;22.90;99.90
7654;DHT22;3869;48.406;10.774;2023-07-13T11:54:25;22.80;99.90
7654;DHT22;3869;48.406;10.774;2023-07-13T11:56:55;22.80;99.90
7654;DHT22;3869;48.406;10.774;2023-07-13T11:59:27;22.80;99.90
7654;DHT22;3869;48.406;10.774;2023-07-13T12:01:57;22.80;99.90
7654;DHT22;3869;48.406;10.774;2023-07-13T12:04:27;22.90;99.90
7654;DHT22;3869;48.406;10.774;2023-07-13T12:07:05;22.90;99.90
7654;DHT22;3869;48.406;10.774;2023-07-13T12:09:35;22.90;99.90
7654;DHT22;3869;48.406;10.774;2023-07-13T12:12:11;22.90;99.90
7654;DHT22;3869;48.406;10.774;2023-07-13T12:14:39;23.00;99.90
7654;DHT22;3869;48.406;10.774;2023-07-13T12:17:12;23.10;99.90
7654;DHT22;3869;48.406;10.774;2023-07-13T12:19:41;23.20;99.90
7654;DHT22;3869;48.406;10.774;2023-07-13T12:22:12;23.10;99.90
7654;DHT22;3869;48.406;10.774;2023-07-13T12:24:41;23.00;99.90
7654;DHT22;3869;48.406;10.774;2023-07-13T12:27:19;23.10;99.90
7654;DHT22;3869;48.406;10.774;2023-07-13T12:29:52;23.30;99.90
7654;DHT22;3869;48.406;10.774;2023-07-13T12:32:21;23.40;99.90
7654;DHT22;3869;48.406;10.774;2023-07-13T12:34:53;23.50;99.90
7654;DHT22;3869;48.406;10.774;2023-07-13T12:37:24;23.50;99.90
7654;DHT22;3869;48.406;10.774;2023-07-13T12:39:52;23.60;99.90
7654;DHT22;3869;48.406;10.774;2023-07-13T12:42:23;23.60;99.90
7654;DHT22;3869;48.406;10.774;2023-07-13T12:44:57;23.60;99.90
7654;DHT22;3869;48.406;10.774;2023-07-13T12:47:27;23.70;99.90
7654;DHT22;3869;48.406;10.774;2023-07-13T12:49:58;23.80;99.90
7654;DHT22;3869;48.406;10.774;2023-07-13T12:52:31;23.90;99.90
7654;DHT22;3869;48.406;10.774;2023-07-13T12:55:05;23.90;99.90
7654;DHT22;3869;48.406;10.774;2023-07-13T12:57:41;24.00;99.90
7654;DHT22;3869;48.406;10.774;2023-07-13T13:00:22;24.00;99.90
7654;DHT22;3869;48.406;10.774;2023-07-13T13:02:53;23.90;99.90
7654;DHT22;3869;48.406;10.774;2023-07-13T13:05:41;23.90;99.90
7654;DHT22;3869;48.406;10.774;2023-07-13T13:08:13;23.90;99.90
7654;DHT22;3869;48.406;10.774;2023-07-13T13:10:41;23.90;99.90
7654;DHT22;3869;48.406;10.774;2023-07-13T13:13:09;24.10;99.90
7654;DHT22;3869;48.406;10.774;2023-07-13T13:15:37;24.10;99.90
7654;DHT22;3869;48.406;10.774;2023-07-13T13:18:14;24.20;99.90
7654;DHT22;3869;48.406;10.774;2023-07-13T13:20:43;24.10;99.90
7654;DHT22;3869;48.406;10.774;2023-07-13T13:23:13;24.10;99.90
7654;DHT22;3869;48.406;10.774;2023-07-13T13:25:44;24.00;99.90
7654;DHT22;3869;48.406;10.774;2023-07-13T13:28:17;23.90;99.70
7654;DHT22;3869;48.406;10.774;2023-07-13T13:30:47;23.80;99.50
7654;DHT22;3869;48.406;10.774;2023-07-13T13:33:19;23.80;99.90
7654;DHT22;3869;48.406;10.774;2023-07-13T13:35:47;23.90;99.90
7654;DHT22;3869;48.406;10.774;2023-07-13T13:38:19;23.90;99.90
7654;DHT22;3869;48.406;10.774;2023-07-13T13:40:48;24.00;99.90
7654;DHT22;3869;48.406;10.774;2023-07-13T13:43:16;24.10;99.90
7654;DHT22;3869;48.406;10.774;2023-07-13T13:45:46;24.20;99.90
7654;DHT22;3869;48.406;10.774;2023-07-13T13:48:16;24.10;99.90
7654;DHT22;3869;48.406;10.774;2023-07-13T13:50:45;24.20;99.90
7654;DHT22;3869;48.406;10.774;2023-07-13T13:53:13;24.30;99.90
7654;DHT22;3869;48.406;10.774;2023-07-13T13:55:43;24.40;99.90
7654;DHT22;3869;48.406;10.774;2023-07-13T13:58:13;24.30;98.30
7654;DHT22;3869;48.406;10.774;2023-07-13T14:00:41;24.30;98.90
7654;DHT22;3869;48.406;10.774;2023-07-13T14:03:15;24.40;99.60
7654;DHT22;3869;48.406;10.774;2023-07-13T14:05:45;24.50;99.00
7654;DHT22;3869;48.406;10.774;2023-07-13T14:08:15;24.50;98.70
7654;DHT22;3869;48.406;10.774;2023-07-13T14:10:45;24.50;99.10
7654;DHT22;3869;48.406;10.774;2023-07-13T14:13:16;24.60;99.10
7654;DHT22;3869;48.406;10.774;2023-07-13T14:15:46;24.60;98.50
7654;DHT22;3869;48.406;10.774;2023-07-13T14:18:14;24.60;98.20
7654;DHT22;3869;48.406;10.774;2023-07-13T14:20:45;24.30;97.00
7654;DHT22;3869;48.406;10.774;2023-07-13T14:23:13;24.30;98.00
7654;DHT22;3869;48.406;10.774;2023-07-13T14:25:42;24.40;97.90
7654;DHT22;3869;48.406;10.774;2023-07-13T14:28:21;24.40;97.30
7654;DHT22;3869;48.406;10.774;2023-07-13T14:30:51;24.40;98.50
7654;DHT22;3869;48.406;10.774;2023-07-13T14:33:19;24.50;97.90
7654;DHT22;3869;48.406;10.774;2023-07-13T14:35:49;24.50;97.50
7654;DHT22;3869;48.406;10.774;2023-07-13T14:38:20;24.50;97.00
7654;DHT22;3869;48.406;10.774;2023-07-13T14:40:48;24.50;96.80
7654;DHT22;3869;48.406;10.774;2023-07-13T14:43:17;24.50;97.20
7654;DHT22;3869;48.406;10.774;2023-07-13T14:45:51;24.50;96.90
7654;DHT22;3869;48.406;10.774;2023-07-13T14:48:21;24.40;96.60
7654;DHT22;3869;48.406;10.774;2023-07-13T14:50:53;24.40;96.90
7654;DHT22;3869;48.406;10.774;2023-07-13T14:53:24;24.40;96.50
7654;DHT22;3869;48.406;10.774;2023-07-13T14:55:52;24.30;97.00
7654;DHT22;3869;48.406;10.774;2023-07-13T14:58:22;24.30;96.70
7654;DHT22;3869;48.406;10.774;2023-07-13T15:00:50;24.30;97.10
7654;DHT22;3869;48.406;10.774;2023-07-13T15:03:23;24.40;97.60
7654;DHT22;3869;48.406;10.774;2023-07-13T15:05:52;24.40;97.60
7654;DHT22;3869;48.406;10.774;2023-07-13T15:08:21;24.40;97.20
7654;DHT22;3869;48.406;10.774;2023-07-13T15:10:49;24.40;96.80
7654;DHT22;3869;48.406;10.774;2023-07-13T15:13:19;24.40;96.40
7654;DHT22;3869;48.406;10.774;2023-07-13T15:15:51;24.40;96.30
7654;DHT22;3869;48.406;10.774;2023-07-13T15:18:21;24.50;96.60
7654;DHT22;3869;48.406;10.774;2023-07-13T15:20:51;24.50;96.20
7654;DHT22;3869;48.406;10.774;2023-07-13T15:23:19;24.50;96.00
7654;DHT22;3869;48.406;10.774;2023-07-13T15:25:49;24.50;96.50
7654;DHT22;3869;48.406;10.774;2023-07-13T15:28:18;24.50;96.30
7654;DHT22;3869;48.406;10.774;2023-07-13T15:30:48;24.50;96.70
7654;DHT22;3869;48.406;10.774;2023-07-13T15:33:19;24.50;96.90
7654;DHT22;3869;48.406;10.774;2023-07-13T15:35:49;24.50;96.00
7654;DHT22;3869;48.406;10.774;2023-07-13T15:38:22;24.40;96.00
7654;DHT22;3869;48.406;10.774;2023-07-13T15:40:50;24.40;95.90
7654;DHT22;3869;48.406;10.774;2023-07-13T15:43:19;24.30;95.30
7654;DHT22;3869;48.406;10.774;2023-07-13T15:45:49;24.30;95.30
7654;DHT22;3869;48.406;10.774;2023-07-13T15:48:19;24.30;95.80
7654;DHT22;3869;48.406;10.774;2023-07-13T15:50:49;24.30;95.50
7654;DHT22;3869;48.406;10.774;2023-07-13T15:53:20;24.20;95.90
7654;DHT22;3869;48.406;10.774;2023-07-13T15:55:48;24.30;96.10
7654;DHT22;3869;48.406;10.774;2023-07-13T15:58:17;24.20;96.30
7654;DHT22;3869;48.406;10.774;2023-07-13T16:00:48;24.30;96.50
7654;DHT22;3869;48.406;10.774;2023-07-13T16:03:19;24.30;96.50
7654;DHT22;3869;48.406;10.774;2023-07-13T16:05:48;24.30;96.90
7654;DHT22;3869;48.406;10.774;2023-07-13T16:08:22;24.20;96.20